createdAt,value
2023-05-05T00:01:12.333Z,7.88
2023-05-05T00:03:42.732Z,7.85
2023-05-05T00:06:13.192Z,8.63
2023-05-05T00:08:42.014Z,8.02
2023-05-05T00:11:10.625Z,8.40
2023-05-05T00:13:39.757Z,8.43
2023-05-05T00:16:08.485Z,7.90
2023-05-05T00:18:37.503Z,9.05
2023-05-05T00:21:05.722Z,8.30
2023-05-05T00:23:35.292Z,7.57
2023-05-05T00:26:03.525Z,8.40
2023-05-05T00:28:31.787Z,9.20
2023-05-05T00:31:00.616Z,7.85
2023-05-05T00:33:28.801Z,9.68
2023-05-05T00:35:57.067Z,7.82
2023-05-05T00:38:25.325Z,7.90
2023-05-05T00:40:54.975Z,7.60
2023-05-05T00:43:23.305Z,8.40
2023-05-05T00:45:59.415Z,8.32
2023-05-05T00:48:27.830Z,8.80
2023-05-05T00:50:56.122Z,8.32
2023-05-05T00:53:26.035Z,8.50
2023-05-05T00:55:55.743Z,8.85
2023-05-05T00:58:24.235Z,9.60
2023-05-05T01:00:52.450Z,8.23
2023-05-05T01:03:20.859Z,9.77
2023-05-05T01:06:04.310Z,11.40
2023-05-05T01:08:43.259Z,11.93
2023-05-05T01:11:22.284Z,14.43
2023-05-05T01:13:59.199Z,13.40
2023-05-05T01:16:30.401Z,14.80
2023-05-05T01:19:07.970Z,14.07
2023-05-05T01:21:42.398Z,13.10
2023-05-05T01:24:44.119Z,13.75
2023-05-05T01:27:31.783Z,13.27
2023-05-05T01:30:11.617Z,12.88
2023-05-05T01:32:47.532Z,13.93
2023-05-05T01:35:19.916Z,12.52
2023-05-05T01:37:52.768Z,12.77
2023-05-05T01:40:27.460Z,11.63
2023-05-05T01:42:58.420Z,10.82
2023-05-05T01:45:30.547Z,12.30
2023-05-05T01:48:01.856Z,11.30
2023-05-05T01:50:30.815Z,11.70
2023-05-05T01:53:00.010Z,10.60
2023-05-05T01:55:31.946Z,11.18
2023-05-05T01:58:04.561Z,10.52
2023-05-05T02:00:34.929Z,11.20
2023-05-05T02:03:06.665Z,11.10
2023-05-05T02:05:37.041Z,12.52
2023-05-05T02:08:07.011Z,11.30
2023-05-05T02:10:35.639Z,12.38
2023-05-05T02:13:04.278Z,10.93
2023-05-05T02:15:33.774Z,11.10
2023-05-05T02:18:06.874Z,12.75
2023-05-05T02:20:38.528Z,13.40
2023-05-05T02:23:08.094Z,14.02
2023-05-05T02:25:41.157Z,12.90
2023-05-05T02:28:14.394Z,14.38
2023-05-05T02:30:44.809Z,15.05
2023-05-05T02:33:18.303Z,15.63
2023-05-05T02:35:48.638Z,11.40
2023-05-05T02:38:19.841Z,10.30
2023-05-05T02:40:53.394Z,10.23
2023-05-05T02:43:24.379Z,9.95
2023-05-05T02:45:53.374Z,10.95
2023-05-05T02:48:24.014Z,8.75
2023-05-05T02:50:53.933Z,9.20
2023-05-05T02:53:31.059Z,8.45
2023-05-05T02:56:09.277Z,11.05
2023-05-05T02:58:49.781Z,9.02
2023-05-05T03:01:30.163Z,9.27
2023-05-05T03:04:08.093Z,9.82
2023-05-05T03:06:43.697Z,8.65
2023-05-05T03:09:21.818Z,9.15
2023-05-05T03:11:56.333Z,10.45
2023-05-05T03:14:29.550Z,8.82
2023-05-05T03:17:00.925Z,9.52
2023-05-05T03:19:31.868Z,8.65
2023-05-05T03:22:04.621Z,9.52
2023-05-05T03:24:33.709Z,11.68
2023-05-05T03:27:06.569Z,9.73
2023-05-05T03:29:38.508Z,9.73
2023-05-05T03:32:11.001Z,11.90
2023-05-05T03:34:41.128Z,11.18
2023-05-05T03:37:09.501Z,11.05
2023-05-05T03:39:39.199Z,11.88
2023-05-05T03:42:08.508Z,10.82
2023-05-05T03:44:37.681Z,10.93
2023-05-05T03:47:06.889Z,11.07
2023-05-05T03:49:37.945Z,15.40
2023-05-05T03:52:08.011Z,13.30
2023-05-05T03:54:36.795Z,12.40
2023-05-05T03:57:05.240Z,12.40
2023-05-05T03:59:34.061Z,12.57
2023-05-05T04:02:02.469Z,13.68
2023-05-05T04:04:31.000Z,11.43
2023-05-05T04:07:00.162Z,11.27
2023-05-05T04:09:29.990Z,12.43
2023-05-05T04:11:58.655Z,11.93
2023-05-05T04:14:27.048Z,13.68
2023-05-05T04:16:55.265Z,14.02
2023-05-05T04:19:24.385Z,13.00
2023-05-05T04:21:53.052Z,14.10
2023-05-05T04:24:24.745Z,13.73
2023-05-05T04:26:56.222Z,14.82
2023-05-05T04:29:25.159Z,12.80
2023-05-05T04:31:53.972Z,13.00
2023-05-05T04:34:22.544Z,14.63
2023-05-05T04:36:52.072Z,12.60
2023-05-05T04:39:21.590Z,12.82
2023-05-05T04:41:50.714Z,12.07
2023-05-05T04:44:20.789Z,13.35
2023-05-05T04:46:49.108Z,15.13
2023-05-05T04:49:17.602Z,13.65
2023-05-05T04:51:46.556Z,12.73
2023-05-05T04:54:15.128Z,12.23
2023-05-05T04:56:44.138Z,11.98
2023-05-05T04:59:12.382Z,11.50
2023-05-05T05:01:42.230Z,12.68
2023-05-05T05:04:11.306Z,14.25
2023-05-05T05:06:39.558Z,12.95
2023-05-05T05:09:07.887Z,13.45
2023-05-05T05:11:36.064Z,15.02
2023-05-05T05:14:04.351Z,13.20
2023-05-05T05:16:33.084Z,12.50
2023-05-05T05:19:03.096Z,15.85
2023-05-05T05:21:33.067Z,13.27
2023-05-05T05:24:01.657Z,16.63
2023-05-05T05:26:30.441Z,14.73
2023-05-05T05:28:58.750Z,13.73
2023-05-05T05:31:27.094Z,16.33
2023-05-05T05:33:56.282Z,15.90
2023-05-05T05:36:27.089Z,12.50
2023-05-05T05:38:55.601Z,14.13
2023-05-05T05:41:24.130Z,12.95
2023-05-05T05:43:52.438Z,13.02
2023-05-05T05:46:21.197Z,11.52
2023-05-05T05:48:49.578Z,10.43
2023-05-05T05:51:18.665Z,13.68
2023-05-05T05:53:48.986Z,14.68
2023-05-05T05:56:17.516Z,13.77
2023-05-05T05:58:48.575Z,13.10
2023-05-05T06:01:17.186Z,13.02
2023-05-05T06:03:46.241Z,12.98
2023-05-05T06:06:14.589Z,10.77
2023-05-05T06:08:43.114Z,12.43
2023-05-05T06:11:12.631Z,11.32
2023-05-05T06:13:42.044Z,13.07
2023-05-05T06:16:10.419Z,11.00
2023-05-05T06:18:41.076Z,13.52
2023-05-05T06:21:09.290Z,13.75
2023-05-05T06:23:37.525Z,10.15
2023-05-05T06:26:07.960Z,10.45
2023-05-05T06:28:37.500Z,11.10
2023-05-05T06:31:05.958Z,10.07
2023-05-05T06:33:34.286Z,9.98
2023-05-05T06:36:02.530Z,10.32
2023-05-05T06:38:30.806Z,10.10
2023-05-05T06:40:59.722Z,11.10
2023-05-05T06:43:29.439Z,12.30
2023-05-05T06:46:02.462Z,11.13
2023-05-05T06:48:30.692Z,9.07
2023-05-05T06:50:58.822Z,7.70
2023-05-05T06:53:27.012Z,9.63
2023-05-05T06:55:55.428Z,5.82
2023-05-05T06:58:23.675Z,5.63
2023-05-05T07:00:51.917Z,7.68
2023-05-05T07:03:21.649Z,5.40
2023-05-05T07:05:49.865Z,4.80
2023-05-05T07:08:18.067Z,5.20
2023-05-05T07:10:47.244Z,4.40
2023-05-05T07:13:16.841Z,4.20
2023-05-05T07:15:46.609Z,10.40
2023-05-05T07:18:15.061Z,5.67
2023-05-05T07:20:45.090Z,4.93
2023-05-05T07:23:13.410Z,4.40
2023-05-05T07:25:41.767Z,6.03
2023-05-05T07:28:09.987Z,4.50
2023-05-05T07:30:38.318Z,4.07
2023-05-05T07:33:06.849Z,4.37
2023-05-05T07:35:35.091Z,4.70
2023-05-05T07:38:05.116Z,4.70
2023-05-05T07:40:34.461Z,6.87
2023-05-05T07:43:02.665Z,4.63
2023-05-05T07:45:31.488Z,3.47
2023-05-05T07:47:59.779Z,3.20
2023-05-05T07:50:28.341Z,3.73
2023-05-05T07:53:06.171Z,3.37
2023-05-05T07:55:43.968Z,4.10
2023-05-05T07:58:12.341Z,6.37
2023-05-05T08:00:40.950Z,5.60
2023-05-05T08:03:11.655Z,3.73
2023-05-05T08:05:40.853Z,4.00
2023-05-05T08:08:09.180Z,4.70
2023-05-05T08:10:37.451Z,3.50
2023-05-05T08:13:07.063Z,4.00
2023-05-05T08:15:35.328Z,4.30
2023-05-05T08:18:03.573Z,3.50
2023-05-05T08:20:32.084Z,4.00
2023-05-05T08:23:00.471Z,5.63
2023-05-05T08:25:28.711Z,4.70
2023-05-05T08:27:56.904Z,4.67
2023-05-05T08:30:31.061Z,4.67
2023-05-05T08:33:00.243Z,6.77
2023-05-05T08:35:28.722Z,5.00
2023-05-05T08:37:58.889Z,5.57
2023-05-05T08:40:33.070Z,6.87
2023-05-05T08:43:02.155Z,4.20
2023-05-05T08:45:32.774Z,5.10
2023-05-05T08:48:03.565Z,4.67
2023-05-05T08:50:32.754Z,3.93
2023-05-05T08:53:10.439Z,3.57
2023-05-05T08:55:46.754Z,2.50
2023-05-05T08:58:16.628Z,3.77
2023-05-05T09:00:46.553Z,3.53
2023-05-05T09:03:15.664Z,3.67
2023-05-05T09:05:44.873Z,3.20
2023-05-05T09:08:13.303Z,5.20
2023-05-05T09:10:42.817Z,4.40
2023-05-05T09:13:11.179Z,3.97
2023-05-05T09:15:41.433Z,4.70
2023-05-05T09:18:12.253Z,6.30
2023-05-05T09:20:42.487Z,3.30
2023-05-05T09:23:12.325Z,4.00
2023-05-05T09:25:41.712Z,3.27
2023-05-05T09:28:11.552Z,3.70
2023-05-05T09:30:40.890Z,4.43
2023-05-05T09:33:09.362Z,3.43
2023-05-05T09:35:52.867Z,3.20
2023-05-05T09:38:22.706Z,4.50
2023-05-05T09:40:52.491Z,4.87
2023-05-05T09:43:22.094Z,3.27
2023-05-05T09:45:51.359Z,3.60
2023-05-05T09:48:27.226Z,3.33
2023-05-05T09:50:57.931Z,2.90
2023-05-05T09:53:26.951Z,4.60
2023-05-05T09:55:56.245Z,3.57
2023-05-05T09:58:26.287Z,3.63
2023-05-05T10:00:55.117Z,3.27
2023-05-05T10:03:23.776Z,4.03
2023-05-05T10:05:54.001Z,3.80
2023-05-05T10:08:25.434Z,3.23
2023-05-05T10:10:55.293Z,3.47
2023-05-05T10:13:25.079Z,2.90
2023-05-05T10:15:55.351Z,3.00
2023-05-05T10:18:25.304Z,3.63
2023-05-05T10:20:58.504Z,3.20
2023-05-05T10:23:36.001Z,3.20
2023-05-05T10:26:07.493Z,3.17
2023-05-05T10:28:44.196Z,2.93
2023-05-05T10:31:26.596Z,3.67
2023-05-05T10:33:59.813Z,2.97
2023-05-05T10:36:29.496Z,3.70
2023-05-05T10:39:01.514Z,3.33
2023-05-05T10:41:31.555Z,4.10
2023-05-05T10:44:02.796Z,6.63
2023-05-05T10:46:33.099Z,4.20
2023-05-05T10:49:11.770Z,3.73
2023-05-05T10:51:48.133Z,4.77
2023-05-05T10:54:25.722Z,3.60
2023-05-05T10:56:54.363Z,3.50
2023-05-05T10:59:47.562Z,3.73
2023-05-05T11:02:24.666Z,5.27
2023-05-05T11:05:15.268Z,3.80
2023-05-05T11:07:43.956Z,3.83
2023-05-05T11:10:15.238Z,3.80
2023-05-05T11:13:21.465Z,3.63
2023-05-05T11:15:52.251Z,3.20
2023-05-05T11:18:37.655Z,3.60
2023-05-05T11:21:16.539Z,3.60
2023-05-05T11:23:50.110Z,4.20
2023-05-05T11:26:40.712Z,4.90
2023-05-05T11:29:08.968Z,2.57
2023-05-05T11:31:37.231Z,4.53
2023-05-05T11:34:28.568Z,7.20
2023-05-05T11:36:59.248Z,3.73
2023-05-05T11:39:38.180Z,2.40
2023-05-05T11:42:24.661Z,3.33
2023-05-05T11:44:53.416Z,3.07
2023-05-05T11:47:32.554Z,3.20
2023-05-05T11:50:18.234Z,2.80
2023-05-05T11:52:46.749Z,3.53
2023-05-05T11:55:22.052Z,3.20
2023-05-05T11:57:51.885Z,2.70
2023-05-05T12:00:21.184Z,3.47
2023-05-05T12:02:58.209Z,3.30
2023-05-05T12:05:26.591Z,3.37
2023-05-05T12:07:58.780Z,3.20
2023-05-05T12:10:27.256Z,3.63
2023-05-05T12:12:57.072Z,4.30
2023-05-05T12:15:33.321Z,2.53
2023-05-05T12:18:02.989Z,2.60
2023-05-05T12:20:33.380Z,2.90
2023-05-05T12:23:03.153Z,3.67
2023-05-05T12:25:39.163Z,3.00
2023-05-05T12:28:09.862Z,2.47
2023-05-05T12:30:38.326Z,2.57
2023-05-05T12:33:08.060Z,2.60
2023-05-05T12:35:37.885Z,4.60
2023-05-05T12:38:06.667Z,2.90
2023-05-05T12:40:48.167Z,2.47
2023-05-05T12:43:31.502Z,3.00
2023-05-05T12:46:05.438Z,2.90
2023-05-05T12:48:33.895Z,4.37
2023-05-05T12:51:27.139Z,2.23
2023-05-05T12:54:04.019Z,2.70
2023-05-05T12:56:34.151Z,2.60
2023-05-05T12:59:04.682Z,2.90
2023-05-05T13:01:33.451Z,2.90
2023-05-05T13:04:12.041Z,2.40
2023-05-05T13:06:41.043Z,2.73
2023-05-05T13:09:10.233Z,2.90
2023-05-05T13:11:39.613Z,2.40
2023-05-05T13:14:09.581Z,2.70
2023-05-05T13:16:37.803Z,4.70
2023-05-05T13:19:06.037Z,2.80
2023-05-05T13:21:34.773Z,2.80
2023-05-05T13:24:19.776Z,3.87
2023-05-05T13:26:51.938Z,3.70
2023-05-05T13:29:21.687Z,2.83
2023-05-05T13:31:50.718Z,2.33
2023-05-05T13:34:19.062Z,2.60
2023-05-05T13:36:47.258Z,8.17
2023-05-05T13:39:15.598Z,4.33
2023-05-05T13:41:44.684Z,2.70
2023-05-05T13:44:13.676Z,3.93
2023-05-05T13:46:43.842Z,4.97
2023-05-05T13:49:12.357Z,3.00
2023-05-05T13:51:40.559Z,3.13
2023-05-05T13:54:09.631Z,3.20
2023-05-05T13:56:37.936Z,3.20
2023-05-05T13:59:06.195Z,2.57
2023-05-05T14:01:34.849Z,2.40
2023-05-05T14:04:05.758Z,2.80
2023-05-05T14:06:35.695Z,3.37
2023-05-05T14:09:06.230Z,3.87
2023-05-05T14:11:34.822Z,3.33
2023-05-05T14:14:03.058Z,2.63
2023-05-05T14:16:31.358Z,3.10
2023-05-05T14:18:59.657Z,2.60
2023-05-05T14:21:29.213Z,2.60
2023-05-05T14:23:57.458Z,2.37
2023-05-05T14:26:25.828Z,2.47
2023-05-05T14:28:54.537Z,3.60
2023-05-05T14:31:22.836Z,3.87
2023-05-05T14:33:51.206Z,3.30
2023-05-05T14:36:19.432Z,3.33
2023-05-05T14:38:49.195Z,3.10
2023-05-05T14:41:17.530Z,2.83
2023-05-05T14:43:45.803Z,3.33
2023-05-05T14:46:14.184Z,2.90
2023-05-05T14:48:42.584Z,2.73
2023-05-05T14:51:10.839Z,4.53
2023-05-05T14:53:39.081Z,2.83
2023-05-05T14:56:08.915Z,3.20
2023-05-05T14:58:37.306Z,3.20
2023-05-05T15:01:06.037Z,3.17
2023-05-05T15:03:34.519Z,3.13
2023-05-05T15:06:03.061Z,2.90
2023-05-05T15:08:31.371Z,2.60
2023-05-05T15:10:59.711Z,5.07
2023-05-05T15:13:29.798Z,2.30
2023-05-05T15:15:58.158Z,3.53
2023-05-05T15:18:26.525Z,3.77
2023-05-05T15:20:54.721Z,2.50
2023-05-05T15:23:22.914Z,3.50
2023-05-05T15:25:51.133Z,5.50
2023-05-05T15:28:19.475Z,5.80
2023-05-05T15:30:49.086Z,5.50
2023-05-05T15:33:17.336Z,2.93
2023-05-05T15:35:45.533Z,3.40
2023-05-05T15:38:13.759Z,4.03
2023-05-05T15:40:41.893Z,3.60
2023-05-05T15:43:10.123Z,3.93
2023-05-05T15:45:38.587Z,3.63
2023-05-05T15:48:08.613Z,2.97
2023-05-05T15:50:37.052Z,3.40
2023-05-05T15:53:05.500Z,2.87
2023-05-05T15:55:34.147Z,3.57
2023-05-05T15:58:02.410Z,3.10
2023-05-05T16:00:31.420Z,3.13
2023-05-05T16:02:59.721Z,4.60
2023-05-05T16:05:29.393Z,4.40
2023-05-05T16:07:57.623Z,3.50
2023-05-05T16:10:26.341Z,3.90
2023-05-05T16:12:54.551Z,3.70
2023-05-05T16:15:22.853Z,3.33
2023-05-05T16:17:51.096Z,3.60
2023-05-05T16:20:19.346Z,4.67
2023-05-05T16:22:49.589Z,5.17
2023-05-05T16:25:19.828Z,4.83
2023-05-05T16:27:48.106Z,4.50
2023-05-05T16:30:16.609Z,4.50
2023-05-05T16:32:45.223Z,5.27
2023-05-05T16:35:13.407Z,4.73
2023-05-05T16:37:41.630Z,5.30
2023-05-05T16:40:12.706Z,4.90
2023-05-05T16:42:43.706Z,4.63
2023-05-05T16:45:12.970Z,4.47
2023-05-05T16:47:41.198Z,4.80
2023-05-05T16:50:10.061Z,5.20
2023-05-05T16:52:38.279Z,5.37
2023-05-05T16:55:07.039Z,5.40
2023-05-05T16:57:36.831Z,5.83
2023-05-05T17:00:05.926Z,6.27
2023-05-05T17:02:35.352Z,5.23
2023-05-05T17:05:03.615Z,5.47
2023-05-05T17:07:31.890Z,5.07
2023-05-05T17:10:00.278Z,5.67
2023-05-05T17:12:28.505Z,6.37
2023-05-05T17:14:58.031Z,6.23
2023-05-05T17:17:26.448Z,5.67
2023-05-05T17:19:54.600Z,7.30
2023-05-05T17:22:22.943Z,7.17
2023-05-05T17:24:51.176Z,7.20
2023-05-05T17:27:19.805Z,6.20
2023-05-05T17:29:48.338Z,6.50
2023-05-05T17:32:18.408Z,6.90
2023-05-05T17:34:46.757Z,7.20
2023-05-05T17:37:15.542Z,6.80
2023-05-05T17:39:43.981Z,6.90
2023-05-05T17:42:12.430Z,7.20
2023-05-05T17:44:40.814Z,7.03
2023-05-05T17:47:09.135Z,7.77
2023-05-05T17:49:38.940Z,6.53
2023-05-05T17:52:07.374Z,6.07
2023-05-05T17:54:35.906Z,7.30
2023-05-05T17:57:04.813Z,7.30
2023-05-05T17:59:33.306Z,7.00
2023-05-05T18:02:02.493Z,13.23
2023-05-05T18:04:31.465Z,9.27
2023-05-05T18:07:01.096Z,9.43
2023-05-05T18:09:29.399Z,10.00
2023-05-05T18:11:57.626Z,10.63
2023-05-05T18:14:25.873Z,8.60
2023-05-05T18:16:54.447Z,9.23
2023-05-05T18:19:23.816Z,8.10
2023-05-05T18:21:54.303Z,7.63
2023-05-05T18:24:24.039Z,8.73
2023-05-05T18:26:53.354Z,8.20
2023-05-05T18:29:22.766Z,9.63
2023-05-05T18:31:53.201Z,9.70
2023-05-05T18:34:21.881Z,10.03
2023-05-05T18:36:54.286Z,10.67
2023-05-05T18:39:23.916Z,10.07
2023-05-05T18:41:52.136Z,11.20
2023-05-05T18:44:20.740Z,11.50
2023-05-05T18:46:49.463Z,12.10
2023-05-05T18:49:17.980Z,10.63
2023-05-05T18:51:46.191Z,10.47
2023-05-05T18:54:14.358Z,9.87
2023-05-05T18:56:43.994Z,12.30
2023-05-05T18:59:12.104Z,12.03
2023-05-05T19:01:41.038Z,11.77
2023-05-05T19:04:22.530Z,9.80
2023-05-05T19:06:58.176Z,10.10
2023-05-05T19:09:26.463Z,10.53
2023-05-05T19:11:56.274Z,10.55
2023-05-05T19:14:24.559Z,9.00
2023-05-05T19:16:55.746Z,9.73
2023-05-05T19:19:24.346Z,9.52
2023-05-05T19:21:52.707Z,10.23
2023-05-05T19:24:20.935Z,9.98
2023-05-05T19:26:49.284Z,10.88
2023-05-05T19:29:19.138Z,10.40
2023-05-05T19:31:47.523Z,11.63
2023-05-05T19:34:15.847Z,9.70
2023-05-05T19:36:44.100Z,9.95
2023-05-05T19:39:13.763Z,10.95
2023-05-05T19:41:44.011Z,10.05
2023-05-05T19:44:12.405Z,11.18
2023-05-05T19:46:42.222Z,10.38
2023-05-05T19:49:10.683Z,9.23
2023-05-05T19:51:39.051Z,10.75
2023-05-05T19:54:07.271Z,10.30
2023-05-05T19:56:35.673Z,11.70
2023-05-05T19:59:06.537Z,9.55
2023-05-05T20:01:36.902Z,10.88
2023-05-05T20:04:06.711Z,11.57
2023-05-05T20:06:36.302Z,11.43
2023-05-05T20:09:04.938Z,11.52
2023-05-05T20:11:33.318Z,9.77
2023-05-05T20:14:01.494Z,11.18
2023-05-05T20:16:29.813Z,10.25
2023-05-05T20:18:58.221Z,11.75
2023-05-05T20:21:27.953Z,11.43
2023-05-05T20:23:56.217Z,10.75
2023-05-05T20:26:24.656Z,10.95
2023-05-05T20:28:52.942Z,11.05
2023-05-05T20:31:21.280Z,10.50
2023-05-05T20:33:49.614Z,11.07
2023-05-05T20:36:18.543Z,21.88
2023-05-05T20:38:48.129Z,15.65
2023-05-05T20:41:16.268Z,10.75
2023-05-05T20:43:44.790Z,10.55
2023-05-05T20:46:13.476Z,10.55
2023-05-05T20:48:42.946Z,10.43
2023-05-05T20:51:11.446Z,11.05
2023-05-05T20:53:39.936Z,13.38
2023-05-05T20:56:09.621Z,14.23
2023-05-05T20:58:37.865Z,17.08
2023-05-05T21:01:06.250Z,19.88
2023-05-05T21:03:34.612Z,22.58
2023-05-05T21:06:03.304Z,24.23
2023-05-05T21:08:31.859Z,24.27
2023-05-05T21:11:00.172Z,27.17
2023-05-05T21:13:30.565Z,31.08
2023-05-05T21:15:58.706Z,26.52
2023-05-05T21:18:27.709Z,27.92
2023-05-05T21:20:56.311Z,26.98
2023-05-05T21:23:24.555Z,26.48
2023-05-05T21:25:52.951Z,22.13
2023-05-05T21:28:21.475Z,25.27
2023-05-05T21:31:10.292Z,19.92
2023-05-05T21:33:39.791Z,24.00
2023-05-05T21:36:08.222Z,16.85
2023-05-05T21:38:36.504Z,15.13
2023-05-05T21:41:04.726Z,15.82
2023-05-05T21:43:32.966Z,14.50
2023-05-05T21:46:03.260Z,13.13
2023-05-05T21:48:32.651Z,13.68
2023-05-05T21:51:01.018Z,13.98
2023-05-05T21:53:29.293Z,13.43
2023-05-05T21:55:57.464Z,14.00
2023-05-05T21:58:25.876Z,13.65
2023-05-05T22:00:54.028Z,13.55
2023-05-05T22:03:23.823Z,12.45
2023-05-05T22:05:52.326Z,13.48
2023-05-05T22:08:39.085Z,15.20
2023-05-05T22:11:07.828Z,11.32
2023-05-05T22:13:36.120Z,13.80
2023-05-05T22:16:05.035Z,11.82
2023-05-05T22:18:34.919Z,12.00
2023-05-05T22:21:03.234Z,13.18
2023-05-05T22:23:31.845Z,13.68
2023-05-05T22:26:00.115Z,13.90
2023-05-05T22:28:28.293Z,16.80
2023-05-05T22:30:56.502Z,13.48
2023-05-05T22:33:25.448Z,12.30
2023-05-05T22:35:55.090Z,14.18
2023-05-05T22:38:23.366Z,16.23
2023-05-05T22:40:51.544Z,14.25
2023-05-05T22:43:19.786Z,14.70
2023-05-05T22:45:48.125Z,13.52
2023-05-05T22:48:16.397Z,12.88
2023-05-05T22:50:44.785Z,14.90
2023-05-05T22:53:14.381Z,12.55
2023-05-05T22:55:42.588Z,12.30
2023-05-05T22:58:10.777Z,12.25
2023-05-05T23:00:38.990Z,14.02
2023-05-05T23:03:07.320Z,12.35
2023-05-05T23:05:35.790Z,17.10
2023-05-05T23:08:04.151Z,16.23
2023-05-05T23:10:33.802Z,13.63
2023-05-05T23:13:02.060Z,14.77
2023-05-05T23:15:30.953Z,15.65
2023-05-05T23:17:59.316Z,17.70
2023-05-05T23:20:27.719Z,18.08
2023-05-05T23:22:56.663Z,17.05
2023-05-05T23:25:24.866Z,15.57
2023-05-05T23:27:54.497Z,16.30
2023-05-05T23:30:23.038Z,15.13
2023-05-05T23:32:51.375Z,16.15
2023-05-05T23:35:19.609Z,16.58
2023-05-05T23:37:47.728Z,16.38
2023-05-05T23:40:15.932Z,14.48
2023-05-05T23:42:44.201Z,15.35
2023-05-05T23:45:13.947Z,16.05
2023-05-05T23:47:42.147Z,15.68
2023-05-05T23:50:11.700Z,14.85
2023-05-05T23:52:39.859Z,16.92
2023-05-05T23:55:09.299Z,15.80
2023-05-05T23:57:38.076Z,16.80
